createdAt,value
2023-05-15T00:01:04.829Z,8.60
2023-05-15T00:03:33.218Z,8.27
2023-05-15T00:06:00.240Z,8.07
2023-05-15T00:08:27.369Z,9.35
2023-05-15T00:11:01.378Z,9.63
2023-05-15T00:13:42.321Z,8.75
2023-05-15T00:16:09.966Z,10.82
2023-05-15T00:18:37.743Z,8.05
2023-05-15T00:21:05.315Z,8.10
2023-05-15T00:23:35.494Z,7.65
2023-05-15T00:26:02.686Z,9.32
2023-05-15T00:28:29.758Z,9.48
2023-05-15T00:30:57.109Z,8.82
2023-05-15T00:33:24.210Z,8.57
2023-05-15T00:35:51.357Z,8.57
2023-05-15T00:38:18.532Z,7.15
2023-05-15T00:40:46.495Z,9.73
2023-05-15T00:43:15.758Z,7.50
2023-05-15T00:45:43.782Z,8.98
2023-05-15T00:48:12.372Z,7.20
2023-05-15T00:50:42.313Z,9.77
2023-05-15T00:53:10.051Z,9.00
2023-05-15T00:55:37.795Z,9.73
2023-05-15T00:58:05.465Z,8.43
2023-05-15T01:00:33.810Z,8.40
2023-05-15T01:03:02.104Z,9.23
2023-05-15T01:05:29.559Z,8.95
2023-05-15T01:08:07.517Z,7.43
2023-05-15T01:10:36.913Z,10.55
2023-05-15T01:13:05.230Z,9.50
2023-05-15T01:15:32.791Z,8.23
2023-05-15T01:17:59.898Z,8.02
2023-05-15T01:20:27.871Z,7.43
2023-05-15T01:23:39.992Z,8.15
2023-05-15T01:30:12.182Z,7.22
2023-05-15T01:33:14.580Z,6.95
2023-05-15T01:35:53.866Z,7.57
2023-05-15T01:38:47.726Z,6.53
2023-05-15T01:41:58.585Z,10.32
2023-05-15T01:44:56.093Z,9.27
2023-05-15T01:47:40.916Z,8.15
2023-05-15T01:50:13.510Z,8.52
2023-05-15T01:52:44.107Z,9.70
2023-05-15T01:55:13.889Z,7.53
2023-05-15T01:57:44.638Z,8.52
2023-05-15T02:00:15.115Z,8.20
2023-05-15T02:02:44.522Z,8.55
2023-05-15T02:05:14.549Z,7.53
2023-05-15T02:07:45.659Z,8.50
2023-05-15T02:10:14.183Z,13.60
2023-05-15T02:12:43.633Z,8.43
2023-05-15T02:15:15.098Z,8.75
2023-05-15T02:17:49.457Z,6.95
2023-05-15T02:20:23.589Z,10.65
2023-05-15T02:22:51.528Z,7.50
2023-05-15T02:25:29.589Z,8.35
2023-05-15T02:28:01.559Z,8.43
2023-05-15T02:34:22.382Z,8.35
2023-05-15T02:37:01.470Z,8.40
2023-05-15T02:39:33.830Z,7.57
2023-05-15T02:42:05.822Z,7.90
2023-05-15T02:47:22.619Z,9.55
2023-05-15T02:49:52.369Z,7.78
2023-05-15T02:52:21.805Z,7.88
2023-05-15T02:54:50.633Z,7.55
2023-05-15T02:57:19.051Z,13.23
2023-05-15T02:59:49.785Z,9.80
2023-05-15T03:02:20.370Z,7.72
2023-05-15T03:04:48.655Z,8.05
2023-05-15T03:07:17.286Z,7.72
2023-05-15T03:09:47.107Z,9.15
2023-05-15T03:12:16.185Z,8.82
2023-05-15T03:14:45.135Z,7.38
2023-05-15T03:22:48.960Z,8.95
2023-05-15T04:14:11.242Z,8.68
2023-05-15T04:16:40.558Z,9.82
2023-05-15T04:40:54.847Z,10.60
2023-05-15T04:43:26.317Z,10.55
2023-05-15T04:45:57.124Z,9.80
2023-05-15T04:48:27.325Z,14.05
2023-05-15T04:51:00.632Z,12.63
2023-05-15T04:53:37.310Z,12.35
2023-05-15T04:56:10.406Z,14.60
2023-05-15T04:58:42.798Z,13.35
2023-05-15T05:01:18.464Z,11.90
2023-05-15T05:03:47.570Z,10.88
2023-05-15T05:06:16.755Z,10.18
2023-05-15T05:08:48.948Z,13.32
2023-05-15T05:11:21.592Z,13.02
2023-05-15T05:13:50.689Z,10.27
2023-05-15T05:19:00.558Z,13.32
2023-05-15T05:21:29.983Z,10.70
2023-05-15T05:24:00.104Z,10.25
2023-05-15T05:26:30.402Z,9.98
2023-05-15T05:29:02.319Z,11.27
2023-05-15T05:31:30.793Z,12.35
2023-05-15T05:34:01.653Z,11.30
2023-05-15T05:36:33.835Z,10.05
2023-05-15T05:39:06.959Z,14.40
2023-05-15T05:41:35.683Z,14.20
2023-05-15T05:44:08.073Z,14.55
2023-05-15T05:47:00.403Z,15.02
2023-05-15T05:49:52.154Z,14.40
2023-05-15T05:52:34.982Z,13.75
2023-05-15T05:55:10.134Z,15.32
2023-05-15T05:57:47.285Z,15.25
2023-05-15T06:45:53.001Z,14.85
2023-05-15T06:48:19.781Z,15.25
2023-05-15T06:50:46.538Z,16.08
2023-05-15T06:53:14.502Z,14.50
2023-05-15T06:55:41.533Z,14.00
2023-05-15T06:58:08.264Z,14.75
2023-05-15T07:00:34.943Z,24.20
2023-05-15T07:03:01.720Z,13.48
2023-05-15T07:05:28.545Z,14.85
2023-05-15T07:07:55.328Z,14.82
2023-05-15T07:10:22.102Z,13.13
2023-05-15T07:12:48.859Z,14.40
2023-05-15T07:15:17.659Z,16.77
2023-05-15T07:17:44.503Z,15.23
2023-05-15T07:20:11.582Z,15.45
2023-05-15T07:22:51.823Z,14.85
2023-05-15T07:25:23.329Z,13.85
2023-05-15T07:27:50.777Z,15.20
2023-05-15T07:30:17.852Z,12.82
2023-05-15T07:32:44.700Z,13.05
2023-05-15T07:35:14.234Z,13.15
2023-05-15T07:37:41.012Z,14.43
2023-05-15T07:40:08.412Z,14.80
2023-05-15T07:42:35.180Z,14.48
2023-05-15T07:45:02.061Z,13.13
2023-05-15T07:47:28.897Z,16.42
2023-05-15T07:49:55.975Z,15.73
2023-05-15T07:52:22.884Z,13.68
2023-05-15T07:54:49.705Z,15.45
2023-05-15T07:57:16.376Z,13.45
2023-05-15T07:59:43.075Z,13.27
2023-05-15T08:02:09.912Z,13.10
2023-05-15T08:04:36.626Z,12.95
2023-05-15T08:07:03.559Z,15.18
2023-05-15T08:09:30.258Z,13.57
2023-05-15T08:11:57.477Z,11.43
2023-05-15T08:14:24.305Z,12.15
2023-05-15T08:16:51.674Z,11.77
2023-05-15T08:19:19.400Z,12.32
2023-05-15T08:21:46.178Z,13.18
2023-05-15T08:24:12.871Z,10.20
2023-05-15T08:26:39.534Z,10.52
2023-05-15T08:29:06.228Z,11.18
2023-05-15T08:31:33.023Z,9.35
2023-05-15T08:33:59.743Z,8.60
2023-05-15T08:36:26.500Z,8.20
2023-05-15T08:38:53.309Z,7.93
2023-05-15T08:41:40.491Z,7.20
2023-05-15T08:44:09.566Z,9.55
2023-05-15T08:46:36.568Z,9.88
2023-05-15T08:49:22.208Z,9.68
2023-05-15T08:51:49.211Z,8.68
2023-05-15T08:54:16.529Z,10.35
2023-05-15T08:56:43.699Z,9.57
2023-05-15T08:59:10.795Z,8.25
2023-05-15T09:01:38.168Z,7.88
2023-05-15T09:04:05.395Z,9.07
2023-05-15T09:06:34.192Z,7.55
2023-05-15T09:09:02.222Z,8.93
2023-05-15T09:11:29.935Z,8.90
2023-05-15T09:14:00.004Z,8.85
2023-05-15T09:16:27.376Z,9.63
2023-05-15T09:18:54.493Z,9.25
2023-05-15T09:21:29.215Z,9.10
2023-05-15T09:24:15.044Z,10.45
2023-05-15T09:26:42.905Z,9.57
2023-05-15T09:29:09.722Z,7.60
2023-05-15T09:31:36.591Z,9.65
2023-05-15T09:34:04.704Z,8.65
2023-05-15T09:36:32.500Z,8.80
2023-05-15T09:39:00.756Z,11.13
2023-05-15T09:41:28.326Z,23.50
2023-05-15T09:43:56.642Z,10.98
2023-05-15T09:46:24.226Z,9.35
2023-05-15T09:48:55.503Z,8.38
2023-05-15T09:51:22.385Z,9.32
2023-05-15T09:53:50.938Z,10.30
2023-05-15T09:56:18.195Z,8.95
2023-05-15T09:58:59.041Z,8.82
2023-05-15T10:01:26.446Z,9.45
2023-05-15T10:04:01.317Z,8.10
2023-05-15T10:06:42.637Z,11.88
2023-05-15T10:09:12.795Z,7.65
2023-05-15T10:11:41.663Z,7.72
2023-05-15T10:14:11.036Z,10.98
2023-05-15T10:16:39.648Z,8.05
2023-05-15T10:19:11.294Z,8.07
2023-05-15T10:21:43.704Z,19.55
2023-05-15T10:24:11.557Z,9.35
2023-05-15T10:26:39.349Z,9.75
2023-05-15T10:29:11.367Z,8.82
2023-05-15T10:31:39.017Z,8.80
2023-05-15T10:34:07.050Z,9.88
2023-05-15T10:36:36.720Z,10.90
2023-05-15T10:39:06.140Z,7.13
2023-05-15T10:41:40.079Z,8.65
2023-05-15T10:44:07.153Z,8.65
2023-05-15T10:46:36.035Z,8.50
2023-05-15T10:49:02.954Z,7.93
2023-05-15T10:51:32.867Z,8.15
2023-05-15T10:54:03.743Z,9.88
2023-05-15T10:56:31.916Z,8.32
2023-05-15T10:59:04.666Z,10.05
2023-05-15T11:01:33.533Z,37.75
2023-05-15T11:04:11.414Z,15.57
2023-05-15T11:06:40.507Z,10.13
2023-05-15T11:09:22.806Z,7.55
2023-05-15T11:11:52.979Z,11.13
2023-05-15T11:14:20.125Z,7.90
2023-05-15T11:16:53.451Z,8.15
2023-05-15T11:19:32.567Z,8.88
2023-05-15T11:22:00.535Z,8.05
2023-05-15T11:24:31.975Z,6.68
2023-05-15T11:27:03.564Z,9.50
2023-05-15T11:29:31.594Z,8.02
2023-05-15T11:31:58.553Z,8.20
2023-05-15T11:34:31.733Z,8.40
2023-05-15T11:36:59.975Z,8.23
2023-05-15T11:39:27.727Z,9.93
2023-05-15T11:41:55.058Z,9.57
2023-05-15T11:44:22.951Z,11.40
2023-05-15T11:46:53.760Z,11.27
2023-05-15T11:49:20.641Z,11.52
2023-05-15T11:51:48.696Z,9.35
2023-05-15T11:54:16.597Z,9.35
2023-05-15T11:56:46.596Z,11.68
2023-05-15T11:59:17.153Z,9.30
2023-05-15T12:01:48.154Z,11.52
2023-05-15T12:04:16.227Z,10.25
2023-05-15T12:06:44.791Z,10.55
2023-05-15T12:09:27.106Z,10.73
2023-05-15T12:11:56.982Z,10.60
2023-05-15T12:14:28.635Z,9.98
2023-05-15T12:17:01.495Z,37.15
2023-05-15T12:19:28.937Z,16.55
2023-05-15T12:21:55.626Z,15.35
2023-05-15T12:24:22.754Z,20.27
2023-05-15T12:26:49.604Z,13.80
2023-05-15T12:29:16.442Z,19.80
2023-05-15T12:31:43.651Z,12.18
2023-05-15T12:34:11.245Z,22.80
2023-05-15T12:36:41.007Z,14.55
2023-05-15T12:39:08.029Z,14.40
2023-05-15T12:41:38.383Z,12.30
2023-05-15T12:44:06.389Z,10.57
2023-05-15T12:46:33.184Z,11.85
2023-05-15T12:49:00.471Z,8.93
2023-05-15T12:51:29.833Z,7.40
2023-05-15T12:53:59.957Z,9.32
2023-05-15T12:56:29.271Z,10.07
2023-05-15T12:58:56.412Z,9.43
2023-05-15T13:01:23.279Z,7.13
2023-05-15T13:03:51.152Z,9.18
2023-05-15T13:06:18.090Z,9.40
2023-05-15T13:08:45.880Z,8.45
2023-05-15T13:11:14.572Z,9.48
2023-05-15T13:13:49.317Z,9.70
2023-05-15T13:16:19.283Z,10.35
2023-05-15T13:18:46.188Z,14.55
2023-05-15T13:21:14.279Z,14.48
2023-05-15T13:23:41.164Z,15.63
2023-05-15T13:26:07.865Z,14.02
2023-05-15T13:28:34.721Z,15.15
2023-05-15T13:31:01.561Z,14.00
2023-05-15T13:33:28.951Z,13.00
2023-05-15T13:35:57.266Z,13.32
2023-05-15T13:38:24.015Z,9.73
2023-05-15T13:40:50.703Z,7.65
2023-05-15T13:43:17.325Z,6.75
2023-05-15T13:45:43.992Z,4.82
2023-05-15T13:48:10.805Z,4.85
2023-05-15T13:50:37.436Z,3.95
2023-05-15T13:53:04.073Z,5.68
2023-05-15T13:55:31.522Z,3.47
2023-05-15T13:57:58.588Z,6.75
2023-05-15T14:00:25.498Z,5.07
2023-05-15T14:02:52.461Z,7.22
2023-05-15T14:05:19.255Z,5.60
2023-05-15T14:07:46.190Z,8.13
2023-05-15T14:10:13.177Z,8.63
2023-05-15T14:12:40.249Z,8.25
2023-05-15T14:15:07.691Z,7.05
2023-05-15T14:17:35.051Z,7.10
2023-05-15T14:20:01.937Z,8.32
2023-05-15T14:22:28.652Z,13.13
2023-05-15T14:24:55.489Z,12.65
2023-05-15T14:27:22.130Z,9.60
2023-05-15T14:29:49.146Z,8.75
2023-05-15T14:32:16.839Z,10.15
2023-05-15T14:34:44.104Z,12.57
2023-05-15T14:37:10.930Z,8.43
2023-05-15T14:39:37.748Z,8.55
2023-05-15T14:42:04.728Z,5.35
2023-05-15T14:44:31.430Z,5.53
2023-05-15T14:47:12.741Z,5.32
2023-05-15T14:49:39.936Z,4.88
2023-05-15T14:52:08.936Z,5.55
2023-05-15T14:54:35.878Z,5.18
2023-05-15T14:57:02.930Z,5.90
2023-05-15T14:59:29.887Z,6.72
2023-05-15T15:01:56.661Z,6.13
2023-05-15T15:04:23.469Z,5.13
2023-05-15T15:06:50.264Z,6.50
2023-05-15T15:09:18.265Z,6.20
2023-05-15T15:11:46.277Z,5.75
2023-05-15T15:14:12.949Z,7.45
2023-05-15T15:16:39.768Z,6.97
2023-05-15T15:19:06.574Z,5.63
2023-05-15T15:21:34.648Z,5.07
2023-05-15T15:24:01.450Z,6.78
2023-05-15T15:26:28.232Z,5.00
2023-05-15T15:29:00.580Z,5.63
2023-05-15T15:31:28.749Z,5.20
2023-05-15T15:33:56.286Z,4.60
2023-05-15T15:36:23.433Z,5.82
2023-05-15T15:38:50.296Z,5.70
2023-05-15T15:41:17.131Z,5.03
2023-05-15T15:43:43.996Z,6.72
2023-05-15T15:46:10.737Z,7.22
2023-05-15T15:48:37.462Z,5.30
2023-05-15T15:51:05.271Z,6.35
2023-05-15T15:53:34.274Z,5.20
2023-05-15T15:56:01.437Z,7.20
2023-05-15T15:58:28.864Z,6.05
2023-05-15T16:00:55.641Z,5.13
2023-05-15T16:03:22.431Z,6.60
2023-05-15T16:05:49.271Z,6.95
2023-05-15T16:08:15.932Z,6.72
2023-05-15T16:10:42.663Z,6.10
2023-05-15T16:13:10.509Z,6.88
2023-05-15T16:15:37.127Z,7.78
2023-05-15T16:18:03.957Z,6.18
2023-05-15T16:20:31.647Z,7.03
2023-05-15T16:22:59.014Z,7.22
2023-05-15T16:25:25.676Z,6.60
2023-05-15T16:27:52.398Z,6.60
2023-05-15T16:30:19.193Z,6.35
2023-05-15T16:32:46.122Z,6.45
2023-05-15T16:35:12.843Z,7.07
2023-05-15T16:37:39.542Z,8.63
2023-05-15T16:40:06.926Z,8.13
2023-05-15T16:42:37.972Z,7.55
2023-05-15T16:45:06.073Z,8.48
2023-05-15T16:47:33.882Z,7.97
2023-05-15T16:50:00.912Z,6.78
2023-05-15T16:52:27.626Z,6.15
2023-05-15T16:54:54.376Z,7.60
2023-05-15T16:57:21.074Z,7.65
2023-05-15T16:59:47.955Z,8.02
2023-05-15T17:02:14.890Z,6.65
2023-05-15T17:04:41.669Z,8.25
2023-05-15T17:07:09.198Z,6.63
2023-05-15T17:09:38.235Z,5.60
2023-05-15T17:12:05.659Z,6.57
2023-05-15T17:14:32.374Z,6.25
2023-05-15T17:16:59.040Z,7.63
2023-05-15T17:19:25.695Z,7.65
2023-05-15T17:21:52.367Z,5.72
2023-05-15T17:24:19.136Z,9.02
2023-05-15T17:26:45.797Z,6.07
2023-05-15T17:29:12.439Z,6.57
2023-05-15T17:31:39.186Z,6.30
2023-05-15T17:34:05.834Z,5.95
2023-05-15T17:36:33.647Z,6.80
2023-05-15T17:39:00.571Z,6.63
2023-05-15T17:41:27.296Z,5.97
2023-05-15T17:43:53.962Z,6.55
2023-05-15T17:46:20.827Z,6.57
2023-05-15T17:48:47.597Z,6.95
2023-05-15T17:51:14.316Z,5.95
2023-05-15T17:53:41.038Z,6.43
2023-05-15T17:56:08.059Z,6.35
2023-05-15T17:58:34.705Z,7.47
2023-05-15T18:01:01.723Z,7.47
2023-05-15T18:03:29.024Z,6.70
2023-05-15T18:05:56.024Z,5.80
2023-05-15T18:08:22.762Z,6.13
2023-05-15T18:10:49.466Z,6.85
2023-05-15T18:13:16.371Z,7.05
2023-05-15T18:15:43.271Z,6.63
2023-05-15T18:18:10.077Z,6.63
2023-05-15T18:20:39.052Z,7.90
2023-05-15T18:23:05.733Z,7.22
2023-05-15T18:25:36.820Z,6.20
2023-05-15T18:28:04.373Z,7.90
2023-05-15T18:30:31.116Z,6.28
2023-05-15T18:32:58.148Z,6.57
2023-05-15T18:35:25.199Z,6.45
2023-05-15T18:37:52.057Z,5.68
2023-05-15T18:40:18.925Z,5.80
2023-05-15T18:42:45.616Z,6.72
2023-05-15T18:45:13.165Z,5.47
2023-05-15T18:47:39.957Z,4.90
2023-05-15T18:50:07.175Z,6.80
2023-05-15T18:52:33.822Z,6.30
2023-05-15T18:55:01.422Z,6.65
2023-05-15T18:57:28.181Z,7.18
2023-05-15T18:59:55.287Z,5.88
2023-05-15T19:02:23.040Z,5.47
2023-05-15T19:04:51.318Z,6.93
2023-05-15T19:07:17.927Z,6.50
2023-05-15T19:09:44.628Z,5.47
2023-05-15T19:12:11.369Z,7.53
2023-05-15T19:14:38.030Z,6.03
2023-05-15T19:17:04.966Z,6.28
2023-05-15T19:19:31.933Z,7.88
2023-05-15T19:21:58.636Z,7.30
2023-05-15T19:24:25.611Z,8.10
2023-05-15T19:26:52.215Z,7.80
2023-05-15T19:29:18.824Z,7.28
2023-05-15T19:31:45.936Z,8.43
2023-05-15T19:34:12.728Z,8.02
2023-05-15T19:36:39.561Z,8.00
2023-05-15T19:39:06.480Z,8.88
2023-05-15T19:41:33.200Z,8.95
2023-05-15T19:44:00.911Z,10.10
2023-05-15T19:46:27.775Z,9.82
2023-05-15T19:48:54.699Z,9.63
2023-05-15T19:51:21.558Z,9.48
2023-05-15T19:53:48.269Z,9.70
2023-05-15T19:56:14.964Z,8.15
2023-05-15T19:58:41.725Z,8.88
2023-05-15T20:01:08.444Z,8.80
2023-05-15T20:03:35.295Z,10.68
2023-05-15T20:06:03.109Z,10.15
2023-05-15T20:08:30.238Z,8.88
2023-05-15T20:10:57.634Z,7.80
2023-05-15T20:13:24.594Z,12.93
2023-05-15T20:15:58.577Z,8.15
2023-05-15T20:18:31.572Z,14.27
2023-05-15T20:21:00.608Z,9.63
2023-05-15T20:23:27.368Z,14.85
2023-05-15T20:25:54.235Z,16.23
2023-05-15T20:28:24.851Z,15.48
2023-05-15T20:30:52.465Z,17.08
2023-05-15T20:33:19.568Z,18.98
2023-05-15T20:35:47.269Z,20.30
2023-05-15T20:50:02.139Z,19.73
2023-05-15T20:52:28.927Z,20.30
2023-05-15T20:54:55.800Z,20.30
2023-05-15T20:57:22.856Z,19.23
2023-05-15T20:59:49.737Z,21.88
2023-05-15T21:02:16.972Z,19.15
2023-05-15T21:04:44.693Z,17.25
2023-05-15T21:07:11.739Z,18.02
2023-05-15T21:09:38.451Z,19.58
2023-05-15T21:14:52.351Z,17.33
2023-05-15T21:42:57.366Z,17.60
2023-05-15T22:18:29.854Z,20.25
2023-05-15T22:23:46.373Z,18.02
2023-05-15T22:26:32.727Z,17.13
2023-05-15T23:12:45.257Z,16.17
2023-05-15T23:15:18.446Z,15.50
2023-05-15T23:20:52.394Z,17.27
2023-05-15T23:23:43.606Z,20.63
2023-05-15T23:28:43.785Z,13.48
2023-05-15T23:31:17.185Z,19.65
2023-05-15T23:33:46.186Z,17.00
2023-05-15T23:36:17.398Z,20.40
2023-05-15T23:38:48.710Z,19.48
2023-05-15T23:41:17.893Z,18.17
2023-05-15T23:43:48.677Z,21.35
2023-05-15T23:46:18.268Z,20.80
2023-05-15T23:48:49.564Z,19.65
2023-05-15T23:51:18.984Z,19.85
2023-05-15T23:54:22.568Z,21.15
2023-05-15T23:57:28.173Z,18.17
